createdAt,value
2023-06-25T00:00:11.925Z,99389.72
2023-06-25T00:03:01.399Z,99397.38
2023-06-25T00:05:49.437Z,99393.16
2023-06-25T00:08:37.415Z,99393.91
2023-06-25T00:11:25.165Z,99392.59
2023-06-25T00:14:13.234Z,99378.56
2023-06-25T00:17:01.186Z,99399.06
2023-06-25T00:19:50.461Z,99397.88
2023-06-25T00:22:38.404Z,99393.72
2023-06-25T00:25:27.746Z,99394.84
2023-06-25T00:28:15.655Z,99404.91
2023-06-25T00:31:03.407Z,99399.69
2023-06-25T00:33:51.346Z,99404.47
2023-06-25T00:36:41.704Z,99416.50
2023-06-25T00:39:30.308Z,99424.97
2023-06-25T00:42:19.095Z,99371.16
2023-06-25T00:45:08.052Z,99410.09
2023-06-25T00:47:56.540Z,99418.78
2023-06-25T00:50:44.639Z,99418.91
2023-06-25T00:53:36.763Z,99417.13
2023-06-25T00:56:29.235Z,99420.88
2023-06-25T00:59:17.820Z,99417.56
2023-06-25T01:02:14.931Z,99428.56
2023-06-25T01:05:10.313Z,99429.78
2023-06-25T01:08:01.054Z,99423.94
2023-06-25T01:10:50.720Z,99422.09
2023-06-25T01:13:38.487Z,99423.53
2023-06-25T01:16:26.698Z,99420.09
2023-06-25T01:19:14.403Z,99416.00
2023-06-25T01:22:04.588Z,99408.72
2023-06-25T01:24:53.844Z,99411.00
2023-06-25T01:27:41.629Z,99406.69
2023-06-25T01:30:32.810Z,99402.59
2023-06-25T01:33:21.492Z,99399.28
2023-06-25T01:36:10.153Z,99385.66
2023-06-25T01:38:57.884Z,99390.53
2023-06-25T01:41:47.906Z,99402.19
2023-06-25T01:44:35.898Z,99393.69
2023-06-25T01:47:23.754Z,99392.34
2023-06-25T01:50:11.769Z,99363.69
2023-06-25T01:52:59.738Z,99395.91
2023-06-25T01:55:47.672Z,99392.66
2023-06-25T01:58:37.062Z,99390.72
2023-06-25T02:01:25.373Z,99386.56
2023-06-25T02:04:13.121Z,99398.78
2023-06-25T02:07:01.335Z,99395.13
2023-06-25T02:09:49.295Z,99396.44
2023-06-25T02:12:37.111Z,99393.28
2023-06-25T02:15:26.343Z,99392.81
2023-06-25T02:18:14.140Z,99384.00
2023-06-25T02:21:02.019Z,99394.97
2023-06-25T02:23:49.812Z,99377.53
2023-06-25T02:26:37.746Z,99391.06
2023-06-25T02:29:25.486Z,99396.16
2023-06-25T02:32:14.825Z,99401.16
2023-06-25T02:35:02.639Z,99393.50
2023-06-25T02:37:50.543Z,99393.31
2023-06-25T02:40:38.301Z,99390.13
2023-06-25T02:43:26.076Z,99389.72
2023-06-25T02:46:13.921Z,99387.13
2023-06-25T02:49:03.201Z,99387.00
2023-06-25T02:51:51.107Z,99383.16
2023-06-25T02:54:38.998Z,99393.44
2023-06-25T02:57:30.575Z,99390.09
2023-06-25T03:00:19.102Z,99393.47
2023-06-25T03:03:07.036Z,99395.03
2023-06-25T03:05:56.346Z,99395.38
2023-06-25T03:08:44.245Z,99398.06
2023-06-25T03:11:32.190Z,99398.72
2023-06-25T03:14:34.233Z,99394.91
2023-06-25T03:17:23.349Z,99394.03
2023-06-25T03:20:12.576Z,99392.38
2023-06-25T03:23:02.004Z,99330.47
2023-06-25T03:25:49.921Z,99387.91
2023-06-25T03:28:37.590Z,99389.41
2023-06-25T03:31:25.597Z,99388.25
2023-06-25T03:34:13.451Z,99379.00
2023-06-25T03:37:01.446Z,99386.84
2023-06-25T03:39:50.618Z,99381.06
2023-06-25T03:42:38.358Z,99380.41
2023-06-25T03:45:26.329Z,99391.94
2023-06-25T03:48:14.297Z,99384.34
2023-06-25T03:51:02.366Z,99388.22
2023-06-25T03:53:50.215Z,99383.91
2023-06-25T03:56:39.624Z,99390.84
2023-06-25T03:59:27.453Z,99401.03
2023-06-25T04:02:15.492Z,99400.91
2023-06-25T04:05:03.413Z,99390.13
2023-06-25T04:07:51.253Z,99392.50
2023-06-25T04:10:39.695Z,99400.16
2023-06-25T04:13:28.974Z,99396.59
2023-06-25T04:16:16.980Z,99400.72
2023-06-25T04:19:04.749Z,99398.56
2023-06-25T04:21:52.760Z,99414.22
2023-06-25T04:24:40.478Z,99415.38
2023-06-25T04:27:28.494Z,99409.38
2023-06-25T04:30:17.904Z,99352.09
2023-06-25T04:33:06.049Z,99418.44
2023-06-25T04:35:53.934Z,99418.84
2023-06-25T04:38:41.873Z,99429.13
2023-06-25T04:41:29.683Z,99429.28
2023-06-25T04:44:17.608Z,99414.22
2023-06-25T04:47:07.183Z,99423.69
2023-06-25T04:49:55.412Z,99421.56
2023-06-25T04:52:43.428Z,99425.09
2023-06-25T04:55:31.256Z,99412.19
2023-06-25T04:58:19.160Z,99426.09
2023-06-25T05:01:06.940Z,99428.25
2023-06-25T05:03:56.540Z,99424.88
2023-06-25T05:06:44.540Z,99409.28
2023-06-25T05:09:32.394Z,99360.19
2023-06-25T05:12:20.234Z,99415.13
2023-06-25T05:15:08.970Z,99425.34
2023-06-25T05:17:57.009Z,99422.50
2023-06-25T05:20:46.178Z,99419.69
2023-06-25T05:23:40.655Z,99387.44
2023-06-25T05:26:28.909Z,99417.16
2023-06-25T05:29:16.774Z,99410.59
2023-06-25T05:32:07.490Z,99415.34
2023-06-25T05:34:57.371Z,99414.25
2023-06-25T05:37:46.728Z,99413.56
2023-06-25T05:40:34.515Z,99422.44
2023-06-25T05:43:22.540Z,99413.34
2023-06-25T05:46:12.762Z,99409.47
2023-06-25T05:49:00.766Z,99413.25
2023-06-25T05:51:48.598Z,99419.00
2023-06-25T05:54:37.805Z,99419.25
2023-06-25T05:57:26.320Z,99421.03
2023-06-25T06:00:14.542Z,99414.03
2023-06-25T06:03:02.609Z,99422.41
2023-06-25T06:05:50.520Z,99417.69
2023-06-25T06:08:38.512Z,99418.53
2023-06-25T06:11:29.102Z,99427.03
2023-06-25T06:14:17.022Z,99419.31
2023-06-25T06:17:05.174Z,99419.63
2023-06-25T06:19:53.896Z,99428.28
2023-06-25T06:22:42.514Z,99422.25
2023-06-25T06:25:30.240Z,99418.53
2023-06-25T06:28:19.444Z,99421.84
2023-06-25T06:31:07.316Z,99424.66
2023-06-25T06:33:55.255Z,99418.41
2023-06-25T06:36:43.063Z,99414.41
2023-06-25T06:39:31.047Z,99416.78
2023-06-25T06:42:18.831Z,99414.75
2023-06-25T06:45:09.117Z,99409.31
2023-06-25T06:47:56.949Z,99407.03
2023-06-25T06:50:44.985Z,99410.09
2023-06-25T06:53:32.777Z,99395.13
2023-06-25T06:56:20.648Z,99340.69
2023-06-25T06:59:08.500Z,99355.03
2023-06-25T07:01:57.909Z,99400.91
2023-06-25T07:04:46.777Z,99386.66
2023-06-25T07:07:34.598Z,99387.41
2023-06-25T07:10:22.488Z,99390.84
2023-06-25T07:13:10.362Z,99389.84
2023-06-25T07:15:58.279Z,99379.34
2023-06-25T07:18:47.444Z,99390.84
2023-06-25T07:21:35.384Z,99388.72
2023-06-25T07:24:23.233Z,99376.00
2023-06-25T07:27:11.214Z,99384.25
2023-06-25T07:29:59.145Z,99374.53
2023-06-25T07:32:47.209Z,99376.91
2023-06-25T07:35:36.510Z,99375.00
2023-06-25T07:38:24.566Z,99374.34
2023-06-25T07:41:12.565Z,99368.75
2023-06-25T07:44:00.305Z,99365.66
2023-06-25T07:46:48.349Z,99362.38
2023-06-25T07:49:36.220Z,99358.06
2023-06-25T07:52:25.602Z,99355.81
2023-06-25T07:55:13.444Z,99356.75
2023-06-25T07:58:01.407Z,99354.50
2023-06-25T08:00:49.267Z,99352.16
2023-06-25T08:03:37.421Z,99351.16
2023-06-25T08:06:25.441Z,99351.50
2023-06-25T08:09:14.766Z,99330.78
2023-06-25T08:12:02.771Z,99339.56
2023-06-25T08:14:51.064Z,99321.16
2023-06-25T08:17:38.914Z,99322.88
2023-06-25T08:20:26.686Z,99312.53
2023-06-25T08:23:14.702Z,99311.59
2023-06-25T08:26:03.906Z,99303.78
2023-06-25T08:28:52.209Z,99304.06
2023-06-25T08:31:40.095Z,99304.06
2023-06-25T08:34:28.281Z,99302.78
2023-06-25T08:37:18.726Z,99302.22
2023-06-25T08:40:07.829Z,99292.59
2023-06-25T08:42:57.032Z,99299.94
2023-06-25T08:45:44.788Z,99292.88
2023-06-25T08:48:35.736Z,99294.63
2023-06-25T08:51:25.367Z,99294.22
2023-06-25T08:54:13.988Z,99297.63
2023-06-25T08:57:01.707Z,99294.97
2023-06-25T08:59:51.155Z,99295.06
2023-06-25T09:02:38.944Z,99291.47
2023-06-25T09:05:28.145Z,99287.56
2023-06-25T09:08:16.326Z,99256.41
2023-06-25T09:11:04.198Z,99288.31
2023-06-25T09:13:52.300Z,99276.81
2023-06-25T09:16:51.937Z,99283.66
2023-06-25T09:19:44.974Z,99282.53
2023-06-25T09:22:33.022Z,99256.94
2023-06-25T09:25:21.014Z,99279.84
2023-06-25T09:28:11.608Z,99274.41
2023-06-25T09:30:59.494Z,99270.66
2023-06-25T09:33:53.525Z,99274.13
2023-06-25T09:36:41.454Z,99266.28
2023-06-25T09:39:29.285Z,99274.03
2023-06-25T09:42:20.658Z,99269.28
2023-06-25T09:45:11.434Z,99247.03
2023-06-25T09:47:59.529Z,99259.84
2023-06-25T09:50:50.453Z,99253.28
2023-06-25T09:53:41.213Z,99255.50
2023-06-25T09:56:29.757Z,99258.56
2023-06-25T09:59:18.363Z,99241.91
2023-06-25T10:02:09.048Z,99246.50
2023-06-25T10:04:56.997Z,99240.78
2023-06-25T10:07:47.423Z,99235.34
2023-06-25T10:10:35.668Z,99233.63
2023-06-25T10:13:24.056Z,99238.16
2023-06-25T10:16:11.989Z,99223.50
2023-06-25T10:19:00.537Z,99223.22
2023-06-25T10:21:59.189Z,99215.25
2023-06-25T10:24:52.210Z,99207.63
2023-06-25T10:27:40.877Z,99199.06
2023-06-25T10:30:37.948Z,99196.91
2023-06-25T10:33:25.872Z,99180.84
2023-06-25T10:36:14.003Z,99181.28
2023-06-25T10:39:02.263Z,99180.63
2023-06-25T10:41:51.378Z,99184.84
2023-06-25T10:44:39.318Z,99175.34
2023-06-25T10:47:27.155Z,99173.44
2023-06-25T10:50:18.818Z,99165.38
2023-06-25T10:53:14.033Z,99158.31
2023-06-25T10:56:01.834Z,99147.63
2023-06-25T10:58:57.692Z,99153.22
2023-06-25T11:01:45.548Z,99146.66
2023-06-25T11:04:33.598Z,99146.94
2023-06-25T11:07:21.680Z,99149.34
2023-06-25T11:10:09.877Z,99145.47
2023-06-25T11:12:57.655Z,99119.16
2023-06-25T11:15:47.104Z,99118.94
2023-06-25T11:18:34.894Z,99113.84
2023-06-25T11:21:22.760Z,99116.50
2023-06-25T11:24:11.747Z,99080.00
2023-06-25T11:27:00.185Z,99103.09
2023-06-25T11:29:49.293Z,99104.25
2023-06-25T11:32:40.639Z,99097.91
2023-06-25T11:35:28.521Z,99101.22
2023-06-25T11:38:26.578Z,99089.16
2023-06-25T11:41:14.314Z,99086.88
2023-06-25T11:44:02.306Z,99091.25
2023-06-25T11:46:52.329Z,99097.59
2023-06-25T11:49:41.622Z,99087.00
2023-06-25T11:52:29.548Z,99094.09
2023-06-25T11:55:20.038Z,99090.59
2023-06-25T11:58:08.024Z,99091.38
2023-06-25T12:00:55.901Z,99084.56
2023-06-25T12:03:43.942Z,99089.22
2023-06-25T12:06:33.210Z,99085.97
2023-06-25T12:09:20.963Z,99085.44
2023-06-25T12:12:09.376Z,99095.88
2023-06-25T12:14:57.097Z,99091.13
2023-06-25T12:17:44.845Z,99086.50
2023-06-25T12:20:32.842Z,99076.63
2023-06-25T12:23:22.125Z,99068.94
2023-06-25T12:26:09.822Z,99069.78
2023-06-25T12:28:57.759Z,99072.78
2023-06-25T12:31:45.581Z,99064.81
2023-06-25T12:34:33.691Z,99065.34
2023-06-25T12:37:21.467Z,99058.19
2023-06-25T12:40:11.540Z,99059.00
2023-06-25T12:43:00.873Z,99063.16
2023-06-25T12:45:49.687Z,99061.13
2023-06-25T12:48:38.904Z,99057.78
2023-06-25T12:51:26.724Z,99055.97
2023-06-25T12:54:14.706Z,99055.91
2023-06-25T12:57:03.908Z,99048.56
2023-06-25T12:59:51.895Z,99049.09
2023-06-25T13:02:40.444Z,99043.63
2023-06-25T13:05:28.417Z,99043.91
2023-06-25T13:08:16.176Z,99045.00
2023-06-25T13:11:04.430Z,99038.69
2023-06-25T13:13:53.508Z,99036.41
2023-06-25T13:16:41.644Z,99027.59
2023-06-25T13:19:29.548Z,99012.78
2023-06-25T13:22:17.546Z,99003.97
2023-06-25T13:25:06.128Z,99013.41
2023-06-25T13:27:53.942Z,99007.59
2023-06-25T13:30:43.740Z,99004.63
2023-06-25T13:33:31.567Z,99000.47
2023-06-25T13:36:19.544Z,98992.22
2023-06-25T13:39:07.487Z,99000.75
2023-06-25T13:41:55.460Z,98999.09
2023-06-25T13:44:43.280Z,98996.38
2023-06-25T13:47:32.504Z,98999.38
2023-06-25T13:50:20.229Z,98991.94
2023-06-25T13:53:08.154Z,98997.44
2023-06-25T13:55:56.582Z,98999.09
2023-06-25T13:58:44.493Z,98971.91
2023-06-25T14:01:32.509Z,98998.28
2023-06-25T14:04:21.874Z,98994.72
2023-06-25T14:07:10.067Z,99002.97
2023-06-25T14:09:58.047Z,99000.50
2023-06-25T14:12:45.833Z,99010.09
2023-06-25T14:15:33.568Z,99006.22
2023-06-25T14:18:21.389Z,99005.41
2023-06-25T14:21:10.538Z,99012.00
2023-06-25T14:23:58.294Z,99013.28
2023-06-25T14:26:46.210Z,99021.00
2023-06-25T14:29:33.923Z,99013.56
2023-06-25T14:32:22.185Z,99013.25
2023-06-25T14:35:10.269Z,99007.72
2023-06-25T14:37:59.534Z,99004.41
2023-06-25T14:40:47.321Z,99008.28
2023-06-25T14:43:35.095Z,99002.00
2023-06-25T14:46:23.049Z,99004.50
2023-06-25T14:49:10.932Z,98999.25
2023-06-25T14:51:58.682Z,98998.41
2023-06-25T14:54:47.815Z,98994.03
2023-06-25T14:57:35.790Z,98985.75
2023-06-25T15:00:23.912Z,98988.13
2023-06-25T15:03:12.120Z,98984.31
2023-06-25T15:06:09.943Z,98983.47
2023-06-25T15:09:01.633Z,98975.72
2023-06-25T15:11:51.061Z,98973.03
2023-06-25T15:14:38.874Z,98971.16
2023-06-25T15:17:26.717Z,98963.69
2023-06-25T15:20:14.425Z,98965.88
2023-06-25T15:23:02.186Z,98958.22
2023-06-25T15:25:53.503Z,98944.97
2023-06-25T15:28:45.457Z,98957.06
2023-06-25T15:31:33.393Z,98947.84
2023-06-25T15:34:21.417Z,98949.44
2023-06-25T15:37:09.383Z,98949.94
2023-06-25T15:39:57.186Z,98949.25
2023-06-25T15:42:45.041Z,98946.50
2023-06-25T15:45:34.272Z,98941.28
2023-06-25T15:48:22.112Z,98935.38
2023-06-25T15:51:09.987Z,98934.31
2023-06-25T15:53:57.870Z,98934.53
2023-06-25T15:56:48.544Z,98934.59
2023-06-25T15:59:36.360Z,98927.97
2023-06-25T16:02:25.787Z,98932.72
2023-06-25T16:05:13.757Z,98931.53
2023-06-25T16:08:01.767Z,98878.25
2023-06-25T16:10:49.691Z,98943.25
2023-06-25T16:13:37.712Z,98945.94
2023-06-25T16:16:25.490Z,98948.16
2023-06-25T16:19:45.598Z,98950.13
2023-06-25T16:22:22.546Z,98954.78
2023-06-25T16:25:10.624Z,98959.13
2023-06-25T16:27:58.469Z,98961.81
2023-06-25T16:30:46.716Z,98967.47
2023-06-25T16:33:34.422Z,98966.69
2023-06-25T16:36:23.742Z,98971.50
2023-06-25T16:39:11.547Z,98974.50
2023-06-25T16:41:59.501Z,98989.84
2023-06-25T16:44:48.797Z,98981.94
2023-06-25T16:47:36.804Z,98979.47
2023-06-25T16:50:24.711Z,98981.94
2023-06-25T16:53:14.007Z,98987.59
2023-06-25T16:56:01.992Z,98988.47
2023-06-25T16:58:49.853Z,98988.41
2023-06-25T17:01:37.922Z,98996.03
2023-06-25T17:04:25.733Z,99001.56
2023-06-25T17:07:13.689Z,99001.22
2023-06-25T17:10:03.105Z,99006.53
2023-06-25T17:12:51.082Z,99000.22
2023-06-25T17:15:39.118Z,99008.75
2023-06-25T17:18:27.101Z,99007.59
2023-06-25T17:21:14.943Z,99010.75
2023-06-25T17:24:02.721Z,99018.31
2023-06-25T17:26:52.909Z,99019.53
2023-06-25T17:29:41.432Z,99021.34
2023-06-25T17:32:29.453Z,99021.09
2023-06-25T17:35:17.568Z,99027.72
2023-06-25T17:38:05.513Z,99030.28
2023-06-25T17:40:53.470Z,99036.31
2023-06-25T17:43:42.888Z,99033.06
2023-06-25T17:46:31.001Z,99028.34
2023-06-25T17:49:18.957Z,99028.66
2023-06-25T17:52:07.923Z,99031.03
2023-06-25T17:54:55.612Z,99037.91
2023-06-25T17:57:43.369Z,99040.47
2023-06-25T18:00:32.565Z,99040.78
2023-06-25T18:03:20.552Z,99041.28
2023-06-25T18:06:08.543Z,99049.69
2023-06-25T18:08:56.527Z,99049.69
2023-06-25T18:11:44.313Z,99045.13
2023-06-25T18:14:32.294Z,99049.69
2023-06-25T18:17:21.441Z,99033.38
2023-06-25T18:20:11.020Z,99042.25
2023-06-25T18:22:58.816Z,99040.41
2023-06-25T18:25:46.997Z,99039.34
2023-06-25T18:28:35.048Z,99039.63
2023-06-25T18:31:22.762Z,99035.31
2023-06-25T18:34:12.708Z,99035.94
2023-06-25T18:37:00.478Z,99034.75
2023-06-25T18:39:48.340Z,99034.03
2023-06-25T18:42:36.093Z,99027.19
2023-06-25T18:45:24.178Z,99034.16
2023-06-25T18:48:11.988Z,99047.50
2023-06-25T18:51:01.348Z,98992.97
2023-06-25T18:53:49.164Z,99057.41
2023-06-25T18:56:37.171Z,99065.72
2023-06-25T18:59:24.918Z,99076.25
2023-06-25T19:02:12.798Z,99069.56
2023-06-25T19:05:01.117Z,99072.34
2023-06-25T19:07:50.283Z,99077.69
2023-06-25T19:10:38.320Z,99055.34
2023-06-25T19:13:26.277Z,99074.50
2023-06-25T19:16:14.168Z,99051.63
2023-06-25T19:19:02.109Z,99076.44
2023-06-25T19:21:50.852Z,99082.72
2023-06-25T19:24:40.148Z,99093.69
2023-06-25T19:27:28.199Z,99101.88
2023-06-25T19:30:15.948Z,99108.84
2023-06-25T19:33:05.221Z,99105.19
2023-06-25T19:35:53.181Z,99105.19
2023-06-25T19:38:40.950Z,99115.16
2023-06-25T19:41:29.978Z,99123.53
2023-06-25T19:44:17.917Z,99124.34
2023-06-25T19:47:06.299Z,99124.06
2023-06-25T19:49:54.187Z,99126.66
2023-06-25T19:52:42.180Z,99134.69
2023-06-25T19:55:30.090Z,99140.41
2023-06-25T19:58:19.608Z,99138.03
2023-06-25T20:01:07.604Z,99133.22
2023-06-25T20:03:55.638Z,99143.25
2023-06-25T20:06:43.581Z,99128.34
2023-06-25T20:09:32.316Z,99159.59
2023-06-25T20:12:20.150Z,99157.75
2023-06-25T20:15:10.552Z,99157.25
2023-06-25T20:17:58.435Z,99149.50
2023-06-25T20:20:46.276Z,99148.25
2023-06-25T20:23:34.205Z,99151.78
2023-06-25T20:26:22.175Z,99160.00
2023-06-25T20:29:10.073Z,99163.88
2023-06-25T20:31:59.344Z,99154.03
2023-06-25T20:34:47.405Z,99144.31
2023-06-25T20:37:35.193Z,99146.88
2023-06-25T20:40:23.251Z,99144.97
2023-06-25T20:43:11.054Z,99144.22
2023-06-25T20:46:02.975Z,99147.06
2023-06-25T20:48:52.160Z,99148.75
2023-06-25T20:51:39.893Z,99154.75
2023-06-25T20:54:29.573Z,99148.69
2023-06-25T20:57:17.324Z,99157.47
2023-06-25T21:00:06.445Z,99159.28
2023-06-25T21:02:56.755Z,99169.53
2023-06-25T21:05:46.585Z,99164.28
2023-06-25T21:08:34.622Z,99157.78
2023-06-25T21:11:22.426Z,99164.84
2023-06-25T21:14:10.168Z,99171.72
2023-06-25T21:16:57.904Z,99167.56
2023-06-25T21:19:45.643Z,99172.06
2023-06-25T21:22:35.145Z,99164.75
2023-06-25T21:25:23.078Z,99107.22
2023-06-25T21:28:10.836Z,99166.69
2023-06-25T21:30:58.917Z,99179.75
2023-06-25T21:33:46.888Z,99182.97
2023-06-25T21:36:34.902Z,99189.41
2023-06-25T21:39:24.306Z,99191.66
2023-06-25T21:42:12.139Z,99214.94
2023-06-25T21:45:00.034Z,99218.25
2023-06-25T21:47:47.741Z,99203.41
2023-06-25T21:50:37.120Z,99202.09
2023-06-25T21:53:25.396Z,99170.59
2023-06-25T21:56:14.782Z,99177.94
2023-06-25T21:59:02.640Z,99153.53
2023-06-25T22:01:50.792Z,99166.00
2023-06-25T22:04:38.581Z,99189.56
2023-06-25T22:07:26.870Z,99163.28
2023-06-25T22:10:14.775Z,99158.16
2023-06-25T22:13:04.016Z,99131.09
2023-06-25T22:15:51.789Z,99162.47
2023-06-25T22:18:39.771Z,99147.25
2023-06-25T22:21:29.463Z,99153.34
2023-06-25T22:24:17.394Z,99151.34
2023-06-25T22:27:05.912Z,99153.59
2023-06-25T22:29:55.055Z,99159.41
2023-06-25T22:32:43.264Z,99168.66
2023-06-25T22:35:31.308Z,99152.97
2023-06-25T22:38:20.585Z,99157.34
2023-06-25T22:41:08.409Z,99154.78
2023-06-25T22:43:56.300Z,99150.56
2023-06-25T22:46:46.190Z,99153.25
2023-06-25T22:49:34.056Z,99148.38
2023-06-25T22:52:21.848Z,99152.38
2023-06-25T22:55:10.063Z,99146.81
2023-06-25T22:57:58.002Z,99141.06
2023-06-25T23:00:45.808Z,99098.91
2023-06-25T23:03:35.250Z,99121.63
2023-06-25T23:06:23.346Z,99122.41
2023-06-25T23:09:14.944Z,99119.41
2023-06-25T23:12:02.923Z,99060.91
2023-06-25T23:14:50.598Z,99112.66
2023-06-25T23:17:38.617Z,99107.88
2023-06-25T23:20:27.845Z,99106.28
2023-06-25T23:23:17.073Z,99107.41
2023-06-25T23:26:09.198Z,99100.81
2023-06-25T23:28:57.294Z,99099.31
2023-06-25T23:31:45.650Z,99069.44
2023-06-25T23:34:33.821Z,99081.34
2023-06-25T23:37:25.653Z,99104.50
2023-06-25T23:40:14.414Z,99097.91
2023-06-25T23:43:02.412Z,99099.03
2023-06-25T23:45:50.279Z,99088.56
2023-06-25T23:48:38.348Z,98881.47
2023-06-25T23:51:26.187Z,99087.28
2023-06-25T23:54:15.629Z,99093.16
2023-06-25T23:57:03.413Z,99089.38
2023-06-25T23:59:51.285Z,99095.34
